Ecaussinnes-d'Enghien, Belgium
Current Conditions -  °F | °C
As of 4:50 PM on Tuesday 21 Oct 2014 (Local Time) from EBCI Reporting Station
Rain Showers Rain Showers  
Wind Chill: 50°   Ceiling: Unl
Heat Index: 50°   Visibility: 6mi
Dew Point: 43°   Wind: 14mph
Humidity: 76%   Direction: 280°W
Pressure: 29.68"   Gusts: 25mph
Location:  50.57°N, 4.17°E
Report Text: EBCI 211450Z 28012G22KT 250V330 9999 VCSH FEW011 SCT028 10/06 Q1005 RESHRA NOSIG
Loading
Personal Weather Stations






























Interactive Weather Map
Tropical Storm Tracking
New forecast layout! Learn more

10-Day Weather Forecast

Advertisements
Track Severe Weather on mobile